sensor_id;sensor_type;location;lat;lon;timestamp;P1;durP1;ratioP1;P2;durP2;ratioP2
25207;SDS011;13153;52.316;21.166;2024-03-02T00:01:06;61.20;;;34.08;;
25207;SDS011;13153;52.316;21.166;2024-03-02T00:03:32;62.60;;;34.92;;
25207;SDS011;13153;52.316;21.166;2024-03-02T00:05:58;62.17;;;33.50;;
25207;SDS011;13153;52.316;21.166;2024-03-02T00:08:25;58.95;;;33.55;;
25207;SDS011;13153;52.316;21.166;2024-03-02T00:10:51;58.67;;;32.40;;
25207;SDS011;13153;52.316;21.166;2024-03-02T00:13:22;58.25;;;33.00;;
25207;SDS011;13153;52.316;21.166;2024-03-02T00:15:48;64.78;;;35.17;;
25207;SDS011;13153;52.316;21.166;2024-03-02T00:18:24;61.67;;;34.85;;
25207;SDS011;13153;52.316;21.166;2024-03-02T00:21:01;64.38;;;35.08;;
25207;SDS011;13153;52.316;21.166;2024-03-02T00:23:31;64.70;;;34.30;;
25207;SDS011;13153;52.316;21.166;2024-03-02T00:26:00;63.67;;;35.10;;
25207;SDS011;13153;52.316;21.166;2024-03-02T00:28:35;63.22;;;32.95;;
25207;SDS011;13153;52.316;21.166;2024-03-02T00:31:02;57.67;;;32.45;;
25207;SDS011;13153;52.316;21.166;2024-03-02T00:33:33;64.30;;;34.67;;
25207;SDS011;13153;52.316;21.166;2024-03-02T00:36:02;59.83;;;33.78;;
25207;SDS011;13153;52.316;21.166;2024-03-02T00:38:30;71.53;;;36.67;;
25207;SDS011;13153;52.316;21.166;2024-03-02T00:41:40;60.08;;;34.50;;
25207;SDS011;13153;52.316;21.166;2024-03-02T00:46:37;66.55;;;35.63;;
25207;SDS011;13153;52.316;21.166;2024-03-02T00:49:16;63.42;;;34.58;;
25207;SDS011;13153;52.316;21.166;2024-03-02T00:51:50;67.15;;;36.05;;
25207;SDS011;13153;52.316;21.166;2024-03-02T00:54:19;72.30;;;37.50;;
25207;SDS011;13153;52.316;21.166;2024-03-02T00:56:49;61.72;;;34.28;;
25207;SDS011;13153;52.316;21.166;2024-03-02T00:59:16;64.15;;;36.30;;
25207;SDS011;13153;52.316;21.166;2024-03-02T01:01:42;61.67;;;34.25;;
25207;SDS011;13153;52.316;21.166;2024-03-02T01:04:08;62.00;;;33.85;;
25207;SDS011;13153;52.316;21.166;2024-03-02T01:06:37;55.03;;;32.08;;
25207;SDS011;13153;52.316;21.166;2024-03-02T01:09:03;59.30;;;34.03;;
25207;SDS011;13153;52.316;21.166;2024-03-02T01:11:29;58.05;;;32.10;;
25207;SDS011;13153;52.316;21.166;2024-03-02T01:13:55;59.10;;;34.28;;
25207;SDS011;13153;52.316;21.166;2024-03-02T01:16:21;59.10;;;32.47;;
25207;SDS011;13153;52.316;21.166;2024-03-02T01:18:47;57.38;;;33.10;;
25207;SDS011;13153;52.316;21.166;2024-03-02T01:21:13;59.83;;;32.22;;
25207;SDS011;13153;52.316;21.166;2024-03-02T01:23:39;54.35;;;31.73;;
25207;SDS011;13153;52.316;21.166;2024-03-02T01:26:05;56.83;;;32.85;;
25207;SDS011;13153;52.316;21.166;2024-03-02T01:28:32;61.40;;;32.28;;
25207;SDS011;13153;52.316;21.166;2024-03-02T01:30:58;53.75;;;32.25;;
25207;SDS011;13153;52.316;21.166;2024-03-02T01:33:24;57.10;;;32.65;;
25207;SDS011;13153;52.316;21.166;2024-03-02T01:35:50;57.83;;;31.85;;
25207;SDS011;13153;52.316;21.166;2024-03-02T01:38:16;58.53;;;31.80;;
25207;SDS011;13153;52.316;21.166;2024-03-02T01:40:42;51.63;;;30.33;;
25207;SDS011;13153;52.316;21.166;2024-03-02T01:43:09;56.38;;;30.45;;
25207;SDS011;13153;52.316;21.166;2024-03-02T01:45:35;50.72;;;29.27;;
25207;SDS011;13153;52.316;21.166;2024-03-02T01:48:02;50.28;;;29.30;;
25207;SDS011;13153;52.316;21.166;2024-03-02T01:50:31;47.67;;;28.27;;
25207;SDS011;13153;52.316;21.166;2024-03-02T01:52:58;47.53;;;28.08;;
25207;SDS011;13153;52.316;21.166;2024-03-02T01:55:25;50.75;;;28.25;;
25207;SDS011;13153;52.316;21.166;2024-03-02T01:57:55;47.83;;;27.45;;
25207;SDS011;13153;52.316;21.166;2024-03-02T02:00:22;47.05;;;27.60;;
25207;SDS011;13153;52.316;21.166;2024-03-02T02:02:51;47.30;;;28.70;;
25207;SDS011;13153;52.316;21.166;2024-03-02T02:05:17;45.50;;;26.27;;
25207;SDS011;13153;52.316;21.166;2024-03-02T02:07:43;44.50;;;26.33;;
25207;SDS011;13153;52.316;21.166;2024-03-02T02:10:10;46.42;;;26.92;;
25207;SDS011;13153;52.316;21.166;2024-03-02T02:12:39;45.03;;;27.15;;
25207;SDS011;13153;52.316;21.166;2024-03-02T02:17:49;43.83;;;26.02;;
25207;SDS011;13153;52.316;21.166;2024-03-02T02:20:15;44.28;;;28.40;;
25207;SDS011;13153;52.316;21.166;2024-03-02T02:22:52;45.22;;;26.85;;
25207;SDS011;13153;52.316;21.166;2024-03-02T02:25:28;47.10;;;27.33;;
25207;SDS011;13153;52.316;21.166;2024-03-02T02:27:55;43.83;;;26.17;;
25207;SDS011;13153;52.316;21.166;2024-03-02T02:30:25;47.13;;;26.45;;
25207;SDS011;13153;52.316;21.166;2024-03-02T02:32:54;46.03;;;26.77;;
25207;SDS011;13153;52.316;21.166;2024-03-02T02:35:20;43.70;;;25.65;;
25207;SDS011;13153;52.316;21.166;2024-03-02T02:37:47;41.22;;;26.08;;
25207;SDS011;13153;52.316;21.166;2024-03-02T02:40:14;44.28;;;26.80;;
25207;SDS011;13153;52.316;21.166;2024-03-02T02:42:41;44.80;;;28.30;;
25207;SDS011;13153;52.316;21.166;2024-03-02T02:45:07;45.63;;;27.33;;
25207;SDS011;13153;52.316;21.166;2024-03-02T02:47:34;44.95;;;27.38;;
25207;SDS011;13153;52.316;21.166;2024-03-02T02:50:03;45.22;;;26.02;;
25207;SDS011;13153;52.316;21.166;2024-03-02T02:52:32;53.13;;;27.35;;
25207;SDS011;13153;52.316;21.166;2024-03-02T02:55:02;51.30;;;28.02;;
25207;SDS011;13153;52.316;21.166;2024-03-02T03:00:05;48.47;;;27.27;;
25207;SDS011;13153;52.316;21.166;2024-03-02T03:02:40;48.83;;;27.92;;
25207;SDS011;13153;52.316;21.166;2024-03-02T03:05:07;49.45;;;29.00;;
25207;SDS011;13153;52.316;21.166;2024-03-02T03:07:39;45.00;;;26.90;;
25207;SDS011;13153;52.316;21.166;2024-03-02T03:10:06;50.90;;;27.45;;
25207;SDS011;13153;52.316;21.166;2024-03-02T03:12:33;48.03;;;28.48;;
25207;SDS011;13153;52.316;21.166;2024-03-02T03:15:00;47.33;;;28.10;;
25207;SDS011;13153;52.316;21.166;2024-03-02T03:17:26;47.78;;;29.00;;
25207;SDS011;13153;52.316;21.166;2024-03-02T03:19:52;47.42;;;27.88;;
25207;SDS011;13153;52.316;21.166;2024-03-02T03:22:18;49.05;;;29.23;;
25207;SDS011;13153;52.316;21.166;2024-03-02T03:24:44;50.55;;;28.55;;
25207;SDS011;13153;52.316;21.166;2024-03-02T03:27:10;51.17;;;29.27;;
25207;SDS011;13153;52.316;21.166;2024-03-02T03:29:37;49.42;;;30.05;;
25207;SDS011;13153;52.316;21.166;2024-03-02T03:32:03;51.45;;;29.05;;
25207;SDS011;13153;52.316;21.166;2024-03-02T03:34:32;48.20;;;29.48;;
25207;SDS011;13153;52.316;21.166;2024-03-02T03:36:58;47.63;;;28.98;;
25207;SDS011;13153;52.316;21.166;2024-03-02T03:39:24;53.88;;;29.48;;
25207;SDS011;13153;52.316;21.166;2024-03-02T03:41:50;50.92;;;29.67;;
25207;SDS011;13153;52.316;21.166;2024-03-02T03:44:17;45.95;;;28.75;;
25207;SDS011;13153;52.316;21.166;2024-03-02T03:46:42;51.50;;;31.02;;
25207;SDS011;13153;52.316;21.166;2024-03-02T03:49:08;47.25;;;29.88;;
25207;SDS011;13153;52.316;21.166;2024-03-02T03:51:34;47.92;;;28.90;;
25207;SDS011;13153;52.316;21.166;2024-03-02T03:54:00;49.22;;;28.48;;
25207;SDS011;13153;52.316;21.166;2024-03-02T03:56:26;50.63;;;29.67;;
25207;SDS011;13153;52.316;21.166;2024-03-02T03:58:52;47.75;;;29.27;;
25207;SDS011;13153;52.316;21.166;2024-03-02T04:01:18;48.67;;;29.27;;
25207;SDS011;13153;52.316;21.166;2024-03-02T04:03:43;47.20;;;27.70;;
25207;SDS011;13153;52.316;21.166;2024-03-02T04:06:10;46.45;;;28.27;;
25207;SDS011;13153;52.316;21.166;2024-03-02T04:08:38;47.45;;;27.65;;
25207;SDS011;13153;52.316;21.166;2024-03-02T04:11:06;50.97;;;29.13;;
25207;SDS011;13153;52.316;21.166;2024-03-02T04:13:32;50.88;;;28.75;;
25207;SDS011;13153;52.316;21.166;2024-03-02T04:15:58;50.33;;;29.63;;
25207;SDS011;13153;52.316;21.166;2024-03-02T04:18:24;48.70;;;28.83;;
25207;SDS011;13153;52.316;21.166;2024-03-02T04:20:50;48.40;;;27.80;;
25207;SDS011;13153;52.316;21.166;2024-03-02T04:23:16;48.33;;;29.05;;
25207;SDS011;13153;52.316;21.166;2024-03-02T04:25:42;50.45;;;29.38;;
25207;SDS011;13153;52.316;21.166;2024-03-02T04:28:07;49.10;;;28.25;;
25207;SDS011;13153;52.316;21.166;2024-03-02T04:30:33;54.58;;;29.73;;
25207;SDS011;13153;52.316;21.166;2024-03-02T04:32:59;46.75;;;27.33;;
25207;SDS011;13153;52.316;21.166;2024-03-02T04:35:26;46.53;;;28.80;;
25207;SDS011;13153;52.316;21.166;2024-03-02T04:37:51;46.42;;;28.00;;
25207;SDS011;13153;52.316;21.166;2024-03-02T04:40:17;53.10;;;29.73;;
25207;SDS011;13153;52.316;21.166;2024-03-02T04:42:43;53.65;;;29.65;;
25207;SDS011;13153;52.316;21.166;2024-03-02T04:45:08;51.67;;;29.48;;
25207;SDS011;13153;52.316;21.166;2024-03-02T04:47:34;55.78;;;32.10;;
25207;SDS011;13153;52.316;21.166;2024-03-02T04:50:00;47.75;;;27.85;;
25207;SDS011;13153;52.316;21.166;2024-03-02T04:52:27;49.65;;;29.38;;
25207;SDS011;13153;52.316;21.166;2024-03-02T04:54:53;49.13;;;28.25;;
25207;SDS011;13153;52.316;21.166;2024-03-02T04:57:37;50.20;;;29.17;;
25207;SDS011;13153;52.316;21.166;2024-03-02T05:00:03;54.78;;;29.52;;
25207;SDS011;13153;52.316;21.166;2024-03-02T05:02:32;53.00;;;29.63;;
25207;SDS011;13153;52.316;21.166;2024-03-02T05:04:57;48.83;;;28.42;;
25207;SDS011;13153;52.316;21.166;2024-03-02T05:07:23;48.42;;;29.40;;
25207;SDS011;13153;52.316;21.166;2024-03-02T05:09:49;54.40;;;29.77;;
25207;SDS011;13153;52.316;21.166;2024-03-02T05:12:14;54.50;;;29.90;;
25207;SDS011;13153;52.316;21.166;2024-03-02T05:14:40;51.47;;;28.83;;
25207;SDS011;13153;52.316;21.166;2024-03-02T05:17:06;52.67;;;30.05;;
25207;SDS011;13153;52.316;21.166;2024-03-02T05:19:32;51.83;;;30.42;;
25207;SDS011;13153;52.316;21.166;2024-03-02T05:21:57;59.42;;;32.00;;
25207;SDS011;13153;52.316;21.166;2024-03-02T05:24:23;52.95;;;30.80;;
25207;SDS011;13153;52.316;21.166;2024-03-02T05:26:52;58.38;;;31.77;;
25207;SDS011;13153;52.316;21.166;2024-03-02T05:29:18;54.38;;;31.70;;
25207;SDS011;13153;52.316;21.166;2024-03-02T05:31:43;58.38;;;32.17;;
25207;SDS011;13153;52.316;21.166;2024-03-02T05:34:09;56.00;;;31.27;;
25207;SDS011;13153;52.316;21.166;2024-03-02T05:36:35;53.85;;;31.92;;
25207;SDS011;13153;52.316;21.166;2024-03-02T05:39:03;52.72;;;30.88;;
25207;SDS011;13153;52.316;21.166;2024-03-02T05:41:34;56.30;;;31.58;;
25207;SDS011;13153;52.316;21.166;2024-03-02T05:44:00;47.45;;;28.55;;
25207;SDS011;13153;52.316;21.166;2024-03-02T05:46:26;54.15;;;30.17;;
25207;SDS011;13153;52.316;21.166;2024-03-02T05:48:53;56.15;;;30.95;;
25207;SDS011;13153;52.316;21.166;2024-03-02T05:51:18;51.95;;;29.52;;
25207;SDS011;13153;52.316;21.166;2024-03-02T05:53:44;52.95;;;29.42;;
25207;SDS011;13153;52.316;21.166;2024-03-02T05:56:10;55.70;;;30.70;;
25207;SDS011;13153;52.316;21.166;2024-03-02T05:58:37;53.80;;;29.60;;
25207;SDS011;13153;52.316;21.166;2024-03-02T06:01:22;55.10;;;30.92;;
25207;SDS011;13153;52.316;21.166;2024-03-02T06:03:53;54.42;;;30.40;;
25207;SDS011;13153;52.316;21.166;2024-03-02T06:06:25;51.13;;;29.27;;
25207;SDS011;13153;52.316;21.166;2024-03-02T06:08:51;55.67;;;30.77;;
25207;SDS011;13153;52.316;21.166;2024-03-02T06:11:19;54.05;;;28.98;;
25207;SDS011;13153;52.316;21.166;2024-03-02T06:13:45;55.25;;;30.25;;
25207;SDS011;13153;52.316;21.166;2024-03-02T06:16:11;50.10;;;29.27;;
25207;SDS011;13153;52.316;21.166;2024-03-02T06:18:37;49.08;;;27.58;;
25207;SDS011;13153;52.316;21.166;2024-03-02T06:21:03;50.85;;;28.48;;
25207;SDS011;13153;52.316;21.166;2024-03-02T06:23:29;50.83;;;28.70;;
25207;SDS011;13153;52.316;21.166;2024-03-02T06:25:55;44.78;;;26.45;;
25207;SDS011;13153;52.316;21.166;2024-03-02T06:28:20;55.42;;;29.23;;
25207;SDS011;13153;52.316;21.166;2024-03-02T06:30:46;49.35;;;28.23;;
25207;SDS011;13153;52.316;21.166;2024-03-02T06:33:12;58.40;;;30.42;;
25207;SDS011;13153;52.316;21.166;2024-03-02T06:35:38;54.15;;;27.92;;
25207;SDS011;13153;52.316;21.166;2024-03-02T06:38:04;48.75;;;27.50;;
25207;SDS011;13153;52.316;21.166;2024-03-02T06:40:30;50.63;;;27.30;;
25207;SDS011;13153;52.316;21.166;2024-03-02T06:42:55;48.80;;;26.33;;
25207;SDS011;13153;52.316;21.166;2024-03-02T06:45:21;50.35;;;26.88;;
25207;SDS011;13153;52.316;21.166;2024-03-02T06:47:47;50.50;;;28.00;;
25207;SDS011;13153;52.316;21.166;2024-03-02T06:50:13;50.35;;;25.70;;
25207;SDS011;13153;52.316;21.166;2024-03-02T06:52:39;54.88;;;27.85;;
25207;SDS011;13153;52.316;21.166;2024-03-02T06:55:05;47.75;;;26.48;;
25207;SDS011;13153;52.316;21.166;2024-03-02T06:57:31;51.78;;;27.30;;
25207;SDS011;13153;52.316;21.166;2024-03-02T06:59:57;52.42;;;27.00;;
25207;SDS011;13153;52.316;21.166;2024-03-02T07:02:26;47.67;;;25.52;;
25207;SDS011;13153;52.316;21.166;2024-03-02T07:04:52;52.60;;;27.77;;
25207;SDS011;13153;52.316;21.166;2024-03-02T07:07:19;50.10;;;26.50;;
25207;SDS011;13153;52.316;21.166;2024-03-02T07:09:45;52.60;;;27.70;;
25207;SDS011;13153;52.316;21.166;2024-03-02T07:12:11;48.88;;;25.52;;
25207;SDS011;13153;52.316;21.166;2024-03-02T07:14:36;51.90;;;26.73;;
25207;SDS011;13153;52.316;21.166;2024-03-02T07:17:21;47.70;;;26.23;;
25207;SDS011;13153;52.316;21.166;2024-03-02T07:19:46;53.17;;;26.38;;
25207;SDS011;13153;52.316;21.166;2024-03-02T07:22:12;53.17;;;26.08;;
25207;SDS011;13153;52.316;21.166;2024-03-02T07:24:39;47.50;;;26.17;;
25207;SDS011;13153;52.316;21.166;2024-03-02T07:27:09;52.13;;;26.90;;
25207;SDS011;13153;52.316;21.166;2024-03-02T07:29:35;54.22;;;27.20;;
25207;SDS011;13153;52.316;21.166;2024-03-02T07:32:01;50.60;;;26.90;;
25207;SDS011;13153;52.316;21.166;2024-03-02T07:34:27;58.28;;;27.88;;
25207;SDS011;13153;52.316;21.166;2024-03-02T07:36:53;45.13;;;24.83;;
25207;SDS011;13153;52.316;21.166;2024-03-02T07:39:19;55.17;;;26.80;;
25207;SDS011;13153;52.316;21.166;2024-03-02T07:41:45;56.28;;;28.13;;
25207;SDS011;13153;52.316;21.166;2024-03-02T07:44:11;51.38;;;26.45;;
25207;SDS011;13153;52.316;21.166;2024-03-02T07:46:41;53.15;;;26.52;;
25207;SDS011;13153;52.316;21.166;2024-03-02T07:49:08;56.28;;;27.83;;
25207;SDS011;13153;52.316;21.166;2024-03-02T07:51:34;53.90;;;26.25;;
25207;SDS011;13153;52.316;21.166;2024-03-02T07:54:01;55.33;;;27.23;;
25207;SDS011;13153;52.316;21.166;2024-03-02T07:56:27;53.47;;;25.85;;
25207;SDS011;13153;52.316;21.166;2024-03-02T07:58:53;47.92;;;25.70;;
25207;SDS011;13153;52.316;21.166;2024-03-02T08:01:22;58.08;;;28.83;;
25207;SDS011;13153;52.316;21.166;2024-03-02T08:03:48;59.92;;;27.63;;
25207;SDS011;13153;52.316;21.166;2024-03-02T08:06:15;53.47;;;27.63;;
25207;SDS011;13153;52.316;21.166;2024-03-02T08:08:45;53.05;;;27.77;;
25207;SDS011;13153;52.316;21.166;2024-03-02T08:11:11;54.97;;;27.45;;
25207;SDS011;13153;52.316;21.166;2024-03-02T08:13:37;53.85;;;26.17;;
25207;SDS011;13153;52.316;21.166;2024-03-02T08:16:03;58.85;;;27.27;;
25207;SDS011;13153;52.316;21.166;2024-03-02T08:18:32;47.60;;;24.85;;
25207;SDS011;13153;52.316;21.166;2024-03-02T08:20:59;53.88;;;26.48;;
25207;SDS011;13153;52.316;21.166;2024-03-02T08:23:25;55.72;;;27.00;;
25207;SDS011;13153;52.316;21.166;2024-03-02T08:25:51;53.03;;;27.55;;
25207;SDS011;13153;52.316;21.166;2024-03-02T08:28:17;55.10;;;26.42;;
25207;SDS011;13153;52.316;21.166;2024-03-02T08:30:43;53.33;;;26.92;;
25207;SDS011;13153;52.316;21.166;2024-03-02T08:33:08;54.72;;;26.27;;
25207;SDS011;13153;52.316;21.166;2024-03-02T08:35:34;56.03;;;25.92;;
25207;SDS011;13153;52.316;21.166;2024-03-02T08:38:02;56.00;;;27.15;;
25207;SDS011;13153;52.316;21.166;2024-03-02T08:40:29;49.30;;;25.90;;
25207;SDS011;13153;52.316;21.166;2024-03-02T08:42:56;52.72;;;26.70;;
25207;SDS011;13153;52.316;21.166;2024-03-02T08:45:22;52.10;;;26.35;;
25207;SDS011;13153;52.316;21.166;2024-03-02T08:47:48;58.63;;;27.48;;
25207;SDS011;13153;52.316;21.166;2024-03-02T08:50:13;57.45;;;27.38;;
25207;SDS011;13153;52.316;21.166;2024-03-02T08:52:39;52.50;;;25.85;;
25207;SDS011;13153;52.316;21.166;2024-03-02T08:55:05;47.42;;;25.98;;
25207;SDS011;13153;52.316;21.166;2024-03-02T08:57:32;55.10;;;27.50;;
25207;SDS011;13153;52.316;21.166;2024-03-02T08:59:58;56.50;;;27.13;;
25207;SDS011;13153;52.316;21.166;2024-03-02T09:02:25;55.78;;;28.60;;
25207;SDS011;13153;52.316;21.166;2024-03-02T09:04:51;57.75;;;27.13;;
25207;SDS011;13153;52.316;21.166;2024-03-02T09:07:17;51.10;;;26.48;;
25207;SDS011;13153;52.316;21.166;2024-03-02T09:09:43;53.55;;;26.65;;
25207;SDS011;13153;52.316;21.166;2024-03-02T09:12:09;53.15;;;27.10;;
25207;SDS011;13153;52.316;21.166;2024-03-02T09:14:36;58.40;;;27.42;;
25207;SDS011;13153;52.316;21.166;2024-03-02T09:17:02;53.67;;;26.92;;
25207;SDS011;13153;52.316;21.166;2024-03-02T09:19:28;55.97;;;27.02;;
25207;SDS011;13153;52.316;21.166;2024-03-02T09:21:55;49.67;;;26.90;;
25207;SDS011;13153;52.316;21.166;2024-03-02T09:24:21;54.55;;;27.58;;
25207;SDS011;13153;52.316;21.166;2024-03-02T09:26:47;52.05;;;26.23;;
25207;SDS011;13153;52.316;21.166;2024-03-02T09:29:13;54.17;;;26.58;;
25207;SDS011;13153;52.316;21.166;2024-03-02T09:31:40;51.40;;;27.23;;
25207;SDS011;13153;52.316;21.166;2024-03-02T09:34:06;59.42;;;28.45;;
25207;SDS011;13153;52.316;21.166;2024-03-02T09:36:32;56.63;;;28.55;;
25207;SDS011;13153;52.316;21.166;2024-03-02T09:38:58;52.05;;;27.33;;
25207;SDS011;13153;52.316;21.166;2024-03-02T09:41:24;51.53;;;26.73;;
25207;SDS011;13153;52.316;21.166;2024-03-02T09:43:50;51.88;;;27.38;;
25207;SDS011;13153;52.316;21.166;2024-03-02T09:46:16;54.50;;;28.10;;
25207;SDS011;13153;52.316;21.166;2024-03-02T09:48:46;56.15;;;27.65;;
25207;SDS011;13153;52.316;21.166;2024-03-02T09:51:11;54.17;;;27.75;;
25207;SDS011;13153;52.316;21.166;2024-03-02T09:53:39;55.33;;;28.63;;
25207;SDS011;13153;52.316;21.166;2024-03-02T09:56:05;52.40;;;27.48;;
25207;SDS011;13153;52.316;21.166;2024-03-02T09:58:31;61.67;;;28.08;;
25207;SDS011;13153;52.316;21.166;2024-03-02T10:00:57;55.72;;;27.17;;
25207;SDS011;13153;52.316;21.166;2024-03-02T10:03:23;49.97;;;24.90;;
25207;SDS011;13153;52.316;21.166;2024-03-02T10:05:52;52.70;;;26.40;;
25207;SDS011;13153;52.316;21.166;2024-03-02T10:08:18;57.50;;;26.55;;
25207;SDS011;13153;52.316;21.166;2024-03-02T10:10:43;49.35;;;26.73;;
25207;SDS011;13153;52.316;21.166;2024-03-02T10:13:10;55.20;;;26.52;;
25207;SDS011;13153;52.316;21.166;2024-03-02T10:15:37;50.67;;;27.05;;
25207;SDS011;13153;52.316;21.166;2024-03-02T10:18:10;50.42;;;26.13;;
25207;SDS011;13153;52.316;21.166;2024-03-02T10:20:38;52.22;;;26.98;;
25207;SDS011;13153;52.316;21.166;2024-03-02T10:23:11;55.60;;;27.45;;
25207;SDS011;13153;52.316;21.166;2024-03-02T10:25:40;55.08;;;27.88;;
25207;SDS011;13153;52.316;21.166;2024-03-02T10:28:06;55.88;;;28.33;;
25207;SDS011;13153;52.316;21.166;2024-03-02T10:30:33;49.05;;;26.35;;
25207;SDS011;13153;52.316;21.166;2024-03-02T10:33:02;55.45;;;27.83;;
25207;SDS011;13153;52.316;21.166;2024-03-02T10:35:30;50.08;;;25.77;;
25207;SDS011;13153;52.316;21.166;2024-03-02T10:38:00;52.95;;;27.13;;
25207;SDS011;13153;52.316;21.166;2024-03-02T10:40:28;54.22;;;27.17;;
25207;SDS011;13153;52.316;21.166;2024-03-02T10:42:54;48.78;;;26.95;;
25207;SDS011;13153;52.316;21.166;2024-03-02T10:45:22;50.00;;;26.05;;
25207;SDS011;13153;52.316;21.166;2024-03-02T10:47:49;50.80;;;26.75;;
25207;SDS011;13153;52.316;21.166;2024-03-02T10:50:16;46.72;;;26.38;;
25207;SDS011;13153;52.316;21.166;2024-03-02T10:52:42;48.83;;;26.20;;
25207;SDS011;13153;52.316;21.166;2024-03-02T10:55:08;52.00;;;26.80;;
25207;SDS011;13153;52.316;21.166;2024-03-02T10:57:54;47.92;;;26.02;;
25207;SDS011;13153;52.316;21.166;2024-03-02T11:00:21;54.20;;;27.80;;
25207;SDS011;13153;52.316;21.166;2024-03-02T11:03:00;50.83;;;26.90;;
25207;SDS011;13153;52.316;21.166;2024-03-02T11:05:36;45.50;;;24.92;;
25207;SDS011;13153;52.316;21.166;2024-03-02T11:08:08;51.33;;;27.05;;
25207;SDS011;13153;52.316;21.166;2024-03-02T11:10:43;54.03;;;28.25;;
25207;SDS011;13153;52.316;21.166;2024-03-02T11:13:22;49.70;;;26.67;;
25207;SDS011;13153;52.316;21.166;2024-03-02T11:16:01;49.70;;;25.88;;
25207;SDS011;13153;52.316;21.166;2024-03-02T11:18:35;54.60;;;28.35;;
25207;SDS011;13153;52.316;21.166;2024-03-02T11:21:02;50.85;;;27.90;;
25207;SDS011;13153;52.316;21.166;2024-03-02T11:23:32;52.70;;;28.67;;
25207;SDS011;13153;52.316;21.166;2024-03-02T11:28:50;53.35;;;30.42;;
25207;SDS011;13153;52.316;21.166;2024-03-02T11:31:16;52.72;;;29.13;;
25207;SDS011;13153;52.316;21.166;2024-03-02T11:33:42;58.63;;;30.35;;
25207;SDS011;13153;52.316;21.166;2024-03-02T11:36:08;56.70;;;30.48;;
25207;SDS011;13153;52.316;21.166;2024-03-02T11:38:35;62.95;;;32.45;;
25207;SDS011;13153;52.316;21.166;2024-03-02T11:41:02;55.72;;;31.33;;
25207;SDS011;13153;52.316;21.166;2024-03-02T11:43:33;58.70;;;32.85;;
25207;SDS011;13153;52.316;21.166;2024-03-02T11:46:04;59.22;;;33.50;;
25207;SDS011;13153;52.316;21.166;2024-03-02T11:48:32;54.97;;;31.20;;
25207;SDS011;13153;52.316;21.166;2024-03-02T11:51:00;56.05;;;32.65;;
25207;SDS011;13153;52.316;21.166;2024-03-02T11:53:27;64.90;;;32.70;;
25207;SDS011;13153;52.316;21.166;2024-03-02T11:55:57;61.05;;;32.55;;
25207;SDS011;13153;52.316;21.166;2024-03-02T11:58:24;57.05;;;31.67;;
25207;SDS011;13153;52.316;21.166;2024-03-02T12:00:52;67.20;;;35.20;;
25207;SDS011;13153;52.316;21.166;2024-03-02T12:03:21;56.97;;;33.17;;
25207;SDS011;13153;52.316;21.166;2024-03-02T12:05:50;58.28;;;33.95;;
25207;SDS011;13153;52.316;21.166;2024-03-02T12:08:17;61.55;;;35.13;;
25207;SDS011;13153;52.316;21.166;2024-03-02T12:10:43;62.42;;;35.22;;
25207;SDS011;13153;52.316;21.166;2024-03-02T12:13:27;61.53;;;34.33;;
25207;SDS011;13153;52.316;21.166;2024-03-02T12:15:54;65.85;;;38.03;;
25207;SDS011;13153;52.316;21.166;2024-03-02T12:18:23;66.50;;;37.22;;
25207;SDS011;13153;52.316;21.166;2024-03-02T12:20:50;68.78;;;39.22;;
25207;SDS011;13153;52.316;21.166;2024-03-02T12:23:23;67.68;;;36.33;;
25207;SDS011;13153;52.316;21.166;2024-03-02T12:25:49;62.08;;;36.17;;
25207;SDS011;13153;52.316;21.166;2024-03-02T12:28:16;69.15;;;38.75;;
25207;SDS011;13153;52.316;21.166;2024-03-02T12:30:42;69.40;;;37.55;;
25207;SDS011;13153;52.316;21.166;2024-03-02T12:33:08;65.82;;;36.35;;
25207;SDS011;13153;52.316;21.166;2024-03-02T12:35:36;65.85;;;36.08;;
25207;SDS011;13153;52.316;21.166;2024-03-02T12:38:02;65.03;;;36.17;;
25207;SDS011;13153;52.316;21.166;2024-03-02T12:40:28;62.03;;;35.78;;
25207;SDS011;13153;52.316;21.166;2024-03-02T12:42:56;65.15;;;36.67;;
25207;SDS011;13153;52.316;21.166;2024-03-02T12:45:22;62.28;;;35.80;;
25207;SDS011;13153;52.316;21.166;2024-03-02T12:47:51;64.45;;;35.30;;
25207;SDS011;13153;52.316;21.166;2024-03-02T12:50:17;52.97;;;33.33;;
25207;SDS011;13153;52.316;21.166;2024-03-02T12:52:43;60.65;;;36.05;;
25207;SDS011;13153;52.316;21.166;2024-03-02T12:55:15;61.60;;;34.88;;
25207;SDS011;13153;52.316;21.166;2024-03-02T12:57:41;60.90;;;34.35;;
25207;SDS011;13153;52.316;21.166;2024-03-02T13:00:08;53.42;;;32.83;;
25207;SDS011;13153;52.316;21.166;2024-03-02T13:02:38;61.15;;;33.78;;
25207;SDS011;13153;52.316;21.166;2024-03-02T13:05:06;56.10;;;30.73;;
25207;SDS011;13153;52.316;21.166;2024-03-02T13:07:39;56.88;;;33.00;;
25207;SDS011;13153;52.316;21.166;2024-03-02T13:10:06;60.00;;;32.13;;
25207;SDS011;13153;52.316;21.166;2024-03-02T13:12:35;58.40;;;33.75;;
25207;SDS011;13153;52.316;21.166;2024-03-02T13:15:02;61.47;;;34.45;;
25207;SDS011;13153;52.316;21.166;2024-03-02T13:17:30;55.17;;;32.30;;
25207;SDS011;13153;52.316;21.166;2024-03-02T13:19:58;58.25;;;33.33;;
25207;SDS011;13153;52.316;21.166;2024-03-02T13:22:25;56.22;;;31.58;;
25207;SDS011;13153;52.316;21.166;2024-03-02T13:24:52;57.58;;;32.80;;
25207;SDS011;13153;52.316;21.166;2024-03-02T13:27:21;57.90;;;33.72;;
25207;SDS011;13153;52.316;21.166;2024-03-02T13:29:48;53.97;;;32.13;;
25207;SDS011;13153;52.316;21.166;2024-03-02T13:32:14;57.38;;;33.17;;
25207;SDS011;13153;52.316;21.166;2024-03-02T13:34:41;52.05;;;31.08;;
25207;SDS011;13153;52.316;21.166;2024-03-02T13:37:08;57.72;;;32.67;;
25207;SDS011;13153;52.316;21.166;2024-03-02T13:39:34;50.40;;;31.13;;
25207;SDS011;13153;52.316;21.166;2024-03-02T13:42:10;59.83;;;32.78;;
25207;SDS011;13153;52.316;21.166;2024-03-02T13:44:38;59.22;;;33.97;;
25207;SDS011;13153;52.316;21.166;2024-03-02T13:47:05;56.95;;;33.13;;
25207;SDS011;13153;52.316;21.166;2024-03-02T13:49:31;55.85;;;31.02;;
25207;SDS011;13153;52.316;21.166;2024-03-02T13:52:04;51.95;;;31.77;;
25207;SDS011;13153;52.316;21.166;2024-03-02T13:54:41;62.38;;;34.00;;
25207;SDS011;13153;52.316;21.166;2024-03-02T13:57:10;64.25;;;34.35;;
25207;SDS011;13153;52.316;21.166;2024-03-02T13:59:37;55.10;;;32.22;;
25207;SDS011;13153;52.316;21.166;2024-03-02T14:02:04;60.90;;;33.22;;
25207;SDS011;13153;52.316;21.166;2024-03-02T14:04:31;63.67;;;34.30;;
25207;SDS011;13153;52.316;21.166;2024-03-02T14:06:58;56.85;;;32.22;;
25207;SDS011;13153;52.316;21.166;2024-03-02T14:09:25;59.75;;;33.92;;
25207;SDS011;13153;52.316;21.166;2024-03-02T14:11:52;57.40;;;33.97;;
25207;SDS011;13153;52.316;21.166;2024-03-02T14:14:18;64.85;;;34.63;;
25207;SDS011;13153;52.316;21.166;2024-03-02T14:16:44;62.15;;;35.13;;
25207;SDS011;13153;52.316;21.166;2024-03-02T14:19:10;63.00;;;34.30;;
25207;SDS011;13153;52.316;21.166;2024-03-02T14:21:37;62.80;;;34.67;;